createdAt,value
2022-08-25T00:01:40.169Z,98629.38
2022-08-25T00:04:10.856Z,98620.91
2022-08-25T00:06:39.594Z,98623.84
2022-08-25T00:09:07.330Z,98625.28
2022-08-25T00:11:36.114Z,98622.66
2022-08-25T00:14:08.541Z,98627.28
2022-08-25T00:16:35.110Z,98629.25
2022-08-25T00:19:06.243Z,98621.09
2022-08-25T00:21:33.535Z,98620.97
2022-08-25T00:24:02.332Z,98619.31
2022-08-25T00:26:29.606Z,98621.31
2022-08-25T00:29:01.795Z,98622.13
2022-08-25T00:31:38.128Z,98618.22
2022-08-25T00:34:08.322Z,98625.31
2022-08-25T00:36:35.221Z,98630.59
2022-08-25T00:39:01.806Z,98633.31
2022-08-25T00:41:28.363Z,98635.22
2022-08-25T00:43:59.040Z,98633.09
2022-08-25T00:46:35.089Z,98639.81
2022-08-25T00:49:05.951Z,98637.56
2022-08-25T00:51:42.761Z,98624.44
2022-08-25T00:54:17.559Z,98637.09
2022-08-25T00:56:45.712Z,98645.22
2022-08-25T00:59:13.701Z,98636.03
2022-08-25T01:01:40.338Z,98640.09
2022-08-25T01:04:07.567Z,98642.88
2022-08-25T01:06:38.929Z,98641.66
2022-08-25T01:09:07.211Z,98648.88
2022-08-25T01:11:34.935Z,98639.81
2022-08-25T01:14:06.325Z,98644.19
2022-08-25T01:16:38.455Z,98641.31
2022-08-25T01:19:07.236Z,98644.38
2022-08-25T01:21:45.943Z,98639.06
2022-08-25T01:24:21.296Z,98641.31
2022-08-25T01:26:47.771Z,98641.19
2022-08-25T01:29:25.258Z,98644.94
2022-08-25T01:32:01.172Z,98640.56
2022-08-25T01:34:30.684Z,98641.50
2022-08-25T01:36:59.076Z,98631.69
2022-08-25T01:39:27.623Z,98628.53
2022-08-25T01:41:59.946Z,98622.28
2022-08-25T01:44:26.430Z,98620.41
2022-08-25T01:46:54.507Z,98631.78
2022-08-25T01:49:22.038Z,98620.50
2022-08-25T01:51:55.611Z,98624.25
2022-08-25T01:54:22.247Z,98627.63
2022-08-25T01:56:48.708Z,98629.28
2022-08-25T01:59:21.658Z,98632.00
2022-08-25T02:01:50.700Z,98625.97
2022-08-25T02:04:17.218Z,98629.00
2022-08-25T02:06:48.249Z,98631.72
2022-08-25T02:09:15.835Z,98623.56
2022-08-25T02:11:44.943Z,98621.00
2022-08-25T02:14:13.800Z,98633.59
2022-08-25T02:16:44.637Z,98634.22
2022-08-25T02:19:12.171Z,98629.00
2022-08-25T02:21:39.398Z,98626.72
2022-08-25T02:24:06.939Z,98628.22
2022-08-25T02:26:36.102Z,98641.19
2022-08-25T02:29:04.072Z,98640.38
2022-08-25T02:31:30.604Z,98634.50
2022-08-25T02:33:57.199Z,98623.06
2022-08-25T02:36:24.048Z,98619.50
2022-08-25T02:38:50.564Z,98612.81
2022-08-25T02:41:21.316Z,98626.22
2022-08-25T02:43:48.743Z,98622.00
2022-08-25T02:46:17.334Z,98619.75
2022-08-25T02:48:44.497Z,98624.75
2022-08-25T02:51:12.268Z,98621.00
2022-08-25T02:53:40.399Z,98612.06
2022-08-25T02:56:09.646Z,98614.16
2022-08-25T02:58:37.488Z,98605.03
2022-08-25T03:01:04.859Z,98605.03
2022-08-25T03:03:32.340Z,98610.16
2022-08-25T03:06:00.703Z,98602.91
2022-08-25T03:08:27.307Z,98607.69
2022-08-25T03:10:53.727Z,98606.69
2022-08-25T03:13:20.070Z,98608.34
2022-08-25T03:15:46.516Z,98610.44
2022-08-25T03:18:15.916Z,98616.03
2022-08-25T03:20:44.420Z,98609.38
2022-08-25T03:23:10.980Z,98618.75
2022-08-25T03:25:58.302Z,98630.44
2022-08-25T03:28:29.819Z,98629.59
2022-08-25T03:30:57.031Z,98640.72
2022-08-25T03:33:23.462Z,98627.31
2022-08-25T03:35:49.804Z,98626.38
2022-08-25T03:38:16.872Z,98623.25
2022-08-25T03:40:43.310Z,98620.56
2022-08-25T03:43:09.680Z,98620.69
2022-08-25T03:45:43.716Z,98618.59
2022-08-25T03:48:10.628Z,98608.66
2022-08-25T03:50:43.394Z,98608.66
2022-08-25T03:53:17.731Z,98606.19
2022-08-25T03:55:44.186Z,98607.22
2022-08-25T03:58:11.012Z,98610.38
2022-08-25T04:00:37.666Z,98612.72
2022-08-25T04:03:04.226Z,98612.72
2022-08-25T04:05:30.823Z,98606.38
2022-08-25T04:08:01.508Z,98604.72
2022-08-25T04:10:28.263Z,98613.47
2022-08-25T04:12:55.932Z,98608.50
2022-08-25T04:15:22.567Z,98616.63
2022-08-25T04:17:51.817Z,98622.00
2022-08-25T04:20:18.810Z,98613.25
2022-08-25T04:22:45.628Z,98619.94
2022-08-25T04:25:12.666Z,98620.41
2022-08-25T04:27:39.648Z,98622.94
2022-08-25T04:30:06.975Z,98620.94
2022-08-25T04:32:36.163Z,98624.28
2022-08-25T04:35:04.200Z,98624.69
2022-08-25T04:37:30.688Z,98621.56
2022-08-25T04:39:57.147Z,98614.91
2022-08-25T04:42:23.676Z,98619.75
2022-08-25T04:44:50.068Z,98615.16
2022-08-25T04:47:16.534Z,98607.84
2022-08-25T04:49:43.302Z,98607.47
2022-08-25T04:52:14.547Z,98617.91
2022-08-25T04:54:41.992Z,98615.28
2022-08-25T04:57:08.520Z,98612.38
2022-08-25T04:59:35.094Z,98610.22
2022-08-25T05:02:05.357Z,98614.00
2022-08-25T05:04:34.281Z,98610.84
2022-08-25T05:07:01.265Z,98609.19
2022-08-25T05:09:28.308Z,98607.31
2022-08-25T05:11:55.254Z,98598.94
2022-08-25T05:14:26.499Z,98601.59
2022-08-25T05:16:56.395Z,98610.09
2022-08-25T05:19:24.061Z,98605.03
2022-08-25T05:21:51.061Z,98591.56
2022-08-25T05:24:18.374Z,98593.50
2022-08-25T05:26:44.966Z,98587.53
2022-08-25T05:29:11.633Z,98585.56
2022-08-25T05:31:42.417Z,98586.25
2022-08-25T05:34:12.045Z,98578.25
2022-08-25T05:36:42.998Z,98574.97
2022-08-25T05:39:10.470Z,98587.38
2022-08-25T05:41:37.693Z,98578.22
2022-08-25T05:44:04.315Z,98579.94
2022-08-25T05:46:31.770Z,98569.34
2022-08-25T05:48:58.847Z,98567.13
2022-08-25T05:51:26.208Z,98565.94
2022-08-25T05:53:52.844Z,98563.22
2022-08-25T05:56:19.768Z,98560.81
2022-08-25T05:58:46.800Z,98561.06
2022-08-25T06:01:45.175Z,98557.94
2022-08-25T06:04:13.027Z,98559.84
2022-08-25T06:06:40.007Z,98556.34
2022-08-25T06:09:08.655Z,98556.03
2022-08-25T06:11:36.340Z,98558.44
2022-08-25T06:14:03.082Z,98554.94
2022-08-25T06:16:29.591Z,98546.19
2022-08-25T06:18:56.224Z,98555.00
2022-08-25T06:21:22.745Z,98541.28
2022-08-25T06:23:49.312Z,98536.09
2022-08-25T06:26:21.049Z,98525.47
2022-08-25T06:28:49.339Z,98525.16
2022-08-25T06:31:15.910Z,98535.31
2022-08-25T06:33:43.018Z,98534.97
2022-08-25T06:36:09.824Z,98534.97
2022-08-25T06:38:36.288Z,98523.13
2022-08-25T06:41:07.132Z,98527.06
2022-08-25T06:43:34.408Z,98527.81
2022-08-25T06:46:15.038Z,98528.50
2022-08-25T06:48:42.592Z,98527.59
2022-08-25T06:51:13.970Z,98524.06
2022-08-25T06:53:45.686Z,98520.34
2022-08-25T06:56:19.289Z,98519.59
2022-08-25T06:58:46.921Z,98519.47
2022-08-25T07:01:23.513Z,98528.00
2022-08-25T07:03:57.233Z,98522.78
2022-08-25T07:06:24.887Z,98525.25
2022-08-25T07:08:51.328Z,98523.91
2022-08-25T07:11:18.499Z,98526.66
2022-08-25T07:13:45.498Z,98523.06
2022-08-25T07:16:12.744Z,98534.00
2022-08-25T07:18:39.280Z,98532.13
2022-08-25T07:21:08.946Z,98538.56
2022-08-25T07:23:36.505Z,98533.75
2022-08-25T07:26:15.879Z,98530.53
2022-08-25T07:28:53.596Z,98542.44
2022-08-25T07:31:21.555Z,98533.59
2022-08-25T07:34:14.370Z,98534.38
2022-08-25T07:36:42.962Z,98539.56
2022-08-25T07:39:09.395Z,98538.41
2022-08-25T07:41:41.559Z,98540.47
2022-08-25T07:44:10.457Z,98549.16
2022-08-25T07:46:37.083Z,98549.38
2022-08-25T07:49:05.293Z,98558.28
2022-08-25T07:52:03.261Z,98559.19
2022-08-25T07:54:34.137Z,98558.34
2022-08-25T07:57:01.643Z,98562.47
2022-08-25T07:59:28.142Z,98570.78
2022-08-25T08:01:54.811Z,98568.03
2022-08-25T08:04:22.221Z,98566.94
2022-08-25T08:06:48.711Z,98564.34
2022-08-25T08:09:16.123Z,98560.47
2022-08-25T08:11:53.990Z,98563.00
2022-08-25T08:14:21.044Z,98563.00
2022-08-25T08:16:47.678Z,98556.97
2022-08-25T08:19:14.211Z,98555.31
2022-08-25T08:21:41.556Z,98567.97
2022-08-25T08:24:24.765Z,98562.34
2022-08-25T08:26:58.931Z,98560.69
2022-08-25T08:29:26.786Z,98555.63
2022-08-25T08:31:53.369Z,98559.97
2022-08-25T08:34:19.998Z,98560.00
2022-08-25T08:36:51.340Z,98563.31
2022-08-25T08:39:17.804Z,98556.53
2022-08-25T08:42:18.253Z,98549.56
2022-08-25T08:44:44.642Z,98558.38
2022-08-25T08:47:20.363Z,98550.81
2022-08-25T08:50:26.006Z,98544.34
2022-08-25T08:53:09.324Z,98552.13
2022-08-25T08:55:41.450Z,98549.81
2022-08-25T08:58:14.310Z,98543.44
2022-08-25T09:00:52.010Z,98546.66
2022-08-25T09:03:54.990Z,98543.75
2022-08-25T09:06:34.024Z,98541.66
2022-08-25T09:09:06.886Z,98533.28
2022-08-25T09:11:39.695Z,98534.81
2022-08-25T09:14:30.496Z,98531.06
2022-08-25T09:17:06.386Z,98528.38
2022-08-25T09:19:41.995Z,98521.16
2022-08-25T09:22:35.273Z,98527.53
2022-08-25T09:25:48.764Z,98521.31
2022-08-25T09:28:26.695Z,98523.03
2022-08-25T09:31:12.638Z,98522.56
2022-08-25T09:33:39.243Z,98520.91
2022-08-25T09:36:08.721Z,98519.31
2022-08-25T09:38:35.566Z,98520.84
2022-08-25T09:41:03.098Z,98510.50
2022-08-25T09:43:31.966Z,98514.31
2022-08-25T09:46:23.170Z,98507.50
2022-08-25T09:48:59.371Z,98496.75
2022-08-25T09:51:42.754Z,98494.66
2022-08-25T09:54:12.927Z,98498.59
2022-08-25T09:56:55.690Z,98503.78
2022-08-25T09:59:34.930Z,98494.50
2022-08-25T10:02:20.564Z,98486.25
2022-08-25T10:04:47.395Z,98497.69
2022-08-25T10:07:30.156Z,98485.78
2022-08-25T10:10:02.159Z,98488.91
2022-08-25T10:12:44.302Z,98491.84
2022-08-25T10:15:29.449Z,98487.53
2022-08-25T10:17:57.538Z,98494.47
2022-08-25T10:20:33.089Z,98492.72
2022-08-25T10:23:14.346Z,98491.59
2022-08-25T10:25:58.036Z,98489.19
2022-08-25T10:28:54.519Z,98485.31
2022-08-25T10:31:28.294Z,98476.75
2022-08-25T10:34:02.317Z,98470.19
2022-08-25T10:36:57.432Z,98469.69
2022-08-25T10:39:55.363Z,98469.38
2022-08-25T10:42:38.707Z,98461.84
2022-08-25T10:45:44.263Z,98457.63
2022-08-25T10:48:22.801Z,98451.28
2022-08-25T10:51:20.526Z,98452.53
2022-08-25T10:54:27.925Z,98447.31
2022-08-25T10:57:09.755Z,98442.78
2022-08-25T10:59:49.512Z,98449.63
2022-08-25T11:02:49.524Z,98451.81
2022-08-25T11:05:24.698Z,98445.88
2022-08-25T11:07:58.432Z,98436.63
2022-08-25T11:10:40.621Z,98434.69
2022-08-25T11:13:17.022Z,98436.63
2022-08-25T11:16:19.583Z,98434.47
2022-08-25T11:19:14.253Z,98434.44
2022-08-25T11:21:53.984Z,98434.66
2022-08-25T11:24:32.262Z,98431.38
2022-08-25T11:27:05.506Z,98427.28
2022-08-25T11:29:36.692Z,98423.72
2022-08-25T11:32:04.580Z,98425.84
2022-08-25T11:34:33.462Z,98425.00
2022-08-25T11:37:11.092Z,98415.44
2022-08-25T11:40:03.389Z,98419.38
2022-08-25T11:42:59.077Z,98410.44
2022-08-25T11:45:54.363Z,98417.06
2022-08-25T11:48:29.935Z,98413.13
2022-08-25T11:51:31.353Z,98409.28
2022-08-25T11:54:21.808Z,98398.09
2022-08-25T11:57:07.184Z,98401.44
2022-08-25T11:59:52.051Z,98400.63
2022-08-25T12:02:42.612Z,98395.06
2022-08-25T12:05:34.910Z,98405.00
2022-08-25T12:08:24.004Z,98403.44
2022-08-25T12:11:01.287Z,98402.25
2022-08-25T12:13:44.411Z,98397.03
2022-08-25T12:16:35.758Z,98404.66
2022-08-25T12:19:25.942Z,98395.88
2022-08-25T12:21:54.715Z,98398.13
2022-08-25T12:24:47.574Z,98387.38
2022-08-25T12:27:33.603Z,98387.41
2022-08-25T12:30:39.080Z,98382.69
2022-08-25T12:33:15.079Z,98382.03
2022-08-25T12:36:00.292Z,98379.38
2022-08-25T12:38:32.504Z,98374.34
2022-08-25T12:41:24.247Z,98372.72
2022-08-25T12:43:54.352Z,98372.78
2022-08-25T12:46:25.677Z,98367.25
2022-08-25T12:49:04.634Z,98380.38
2022-08-25T12:51:49.408Z,98371.59
2022-08-25T12:54:47.739Z,98372.88
2022-08-25T12:57:43.706Z,98366.31
2022-08-25T13:00:18.398Z,98371.22
2022-08-25T13:03:03.815Z,98362.91
2022-08-25T13:05:44.597Z,98362.56
2022-08-25T13:08:27.783Z,98363.19
2022-08-25T13:11:15.560Z,98360.31
2022-08-25T13:14:12.594Z,98364.38
2022-08-25T13:16:39.694Z,98353.59
2022-08-25T13:19:07.009Z,98352.66
2022-08-25T13:21:40.367Z,98351.13
2022-08-25T13:24:14.482Z,98354.28
2022-08-25T13:26:48.326Z,98345.78
2022-08-25T13:29:34.068Z,98352.97
2022-08-25T13:32:13.010Z,98343.53
2022-08-25T13:34:42.983Z,98338.59
2022-08-25T13:37:32.230Z,98336.34
2022-08-25T13:40:27.814Z,98333.56
2022-08-25T13:43:07.719Z,98328.31
2022-08-25T13:45:41.505Z,98329.09
2022-08-25T13:48:23.048Z,98328.25
2022-08-25T13:50:53.132Z,98332.91
2022-08-25T13:53:25.321Z,98321.16
2022-08-25T13:55:58.651Z,98322.97
2022-08-25T13:58:39.305Z,98328.53
2022-08-25T14:01:22.829Z,98326.41
2022-08-25T14:04:29.479Z,98320.53
2022-08-25T14:07:19.514Z,98310.88
2022-08-25T14:09:58.891Z,98311.31
2022-08-25T14:12:35.300Z,98317.22
2022-08-25T14:15:04.014Z,98319.34
2022-08-25T14:17:38.687Z,98314.16
2022-08-25T14:20:17.254Z,98315.50
2022-08-25T14:22:43.870Z,98310.94
2022-08-25T14:25:11.194Z,98310.41
2022-08-25T14:27:56.897Z,98307.34
2022-08-25T14:30:30.127Z,98307.03
2022-08-25T14:32:56.994Z,98307.91
2022-08-25T14:35:23.497Z,98311.31
2022-08-25T14:37:50.275Z,98306.03
2022-08-25T14:40:19.793Z,98303.31
2022-08-25T14:42:47.525Z,98300.19
2022-08-25T14:45:18.225Z,98302.75
2022-08-25T14:47:49.831Z,98295.16
2022-08-25T14:50:20.888Z,98292.63
2022-08-25T14:52:48.193Z,98296.47
2022-08-25T14:55:31.216Z,98294.25
2022-08-25T14:57:59.139Z,98296.16
2022-08-25T15:00:25.977Z,98285.44
2022-08-25T15:02:53.095Z,98291.84
2022-08-25T15:05:28.279Z,98285.31
2022-08-25T15:08:14.011Z,98284.63
2022-08-25T15:10:41.885Z,98281.66
2022-08-25T15:13:10.699Z,98278.28
2022-08-25T15:15:52.095Z,98285.03
2022-08-25T15:18:20.354Z,98294.31
2022-08-25T15:20:46.906Z,98277.31
2022-08-25T15:23:19.400Z,98286.44
2022-08-25T15:25:48.299Z,98282.28
2022-08-25T15:28:17.386Z,98277.81
2022-08-25T15:30:45.721Z,98270.06
2022-08-25T15:33:13.369Z,98267.13
2022-08-25T15:35:40.945Z,98271.06
2022-08-25T15:38:08.373Z,98264.69
2022-08-25T15:40:37.394Z,98258.06
2022-08-25T15:43:03.958Z,98261.72
2022-08-25T15:45:31.019Z,98262.50
2022-08-25T15:47:57.828Z,98257.34
2022-08-25T15:50:26.752Z,98258.28
2022-08-25T15:52:53.766Z,98258.22
2022-08-25T15:55:20.899Z,98262.75
2022-08-25T15:57:49.618Z,98255.41
2022-08-25T16:00:18.357Z,98255.03
2022-08-25T16:02:45.522Z,98262.69
2022-08-25T16:05:13.664Z,98262.84
2022-08-25T16:07:42.672Z,98257.13
2022-08-25T16:10:09.952Z,98256.31
2022-08-25T16:12:37.496Z,98257.16
2022-08-25T16:15:04.320Z,98258.91
2022-08-25T16:17:30.798Z,98261.38
2022-08-25T16:19:57.273Z,98261.69
2022-08-25T16:22:23.901Z,98256.75
2022-08-25T16:24:52.712Z,98260.28
2022-08-25T16:27:19.857Z,98259.47
2022-08-25T16:29:47.175Z,98256.34
2022-08-25T16:32:14.692Z,98251.69
2022-08-25T16:34:44.383Z,98257.75
2022-08-25T16:37:11.152Z,98251.13
2022-08-25T16:39:40.042Z,98252.72
2022-08-25T16:42:07.872Z,98251.00
2022-08-25T16:44:34.436Z,98249.22
2022-08-25T16:47:01.353Z,98239.06
2022-08-25T16:49:27.978Z,98237.84
2022-08-25T16:51:57.008Z,98238.69
2022-08-25T16:54:43.249Z,98235.94
2022-08-25T16:57:09.663Z,98230.25
2022-08-25T16:59:36.244Z,98231.06
2022-08-25T17:02:03.909Z,98232.66
2022-08-25T17:04:32.430Z,98233.97
2022-08-25T17:06:59.713Z,98229.66
2022-08-25T17:09:26.168Z,98233.56
2022-08-25T17:11:56.582Z,98234.50
2022-08-25T17:14:23.215Z,98235.78
2022-08-25T17:16:54.471Z,98236.88
2022-08-25T17:19:21.214Z,98231.34
2022-08-25T17:21:50.969Z,98234.69
2022-08-25T17:24:17.803Z,98236.63
2022-08-25T17:26:47.126Z,98236.56
2022-08-25T17:29:13.683Z,98235.66
2022-08-25T17:31:40.586Z,98240.81
2022-08-25T17:34:10.481Z,98244.34
2022-08-25T17:36:38.401Z,98244.00
2022-08-25T17:39:09.452Z,98250.34
2022-08-25T17:41:37.600Z,98245.97
2022-08-25T17:44:05.316Z,98249.59
2022-08-25T17:46:32.261Z,98245.38
2022-08-25T17:48:58.823Z,98251.44
2022-08-25T17:51:25.589Z,98247.94
2022-08-25T17:53:52.740Z,98253.69
2022-08-25T17:56:22.069Z,98255.06
2022-08-25T17:58:49.505Z,98257.06
2022-08-25T18:01:19.780Z,98250.22
2022-08-25T18:03:49.067Z,98257.53
2022-08-25T18:06:16.675Z,98254.59
2022-08-25T18:08:51.276Z,98253.97
2022-08-25T18:11:20.826Z,98256.25
2022-08-25T18:13:47.366Z,98259.25
2022-08-25T18:16:17.066Z,98267.38
2022-08-25T18:18:44.350Z,98267.91
2022-08-25T18:21:15.410Z,98277.41
2022-08-25T18:23:42.827Z,98275.44
2022-08-25T18:26:12.844Z,98281.69
2022-08-25T18:28:43.769Z,98278.50
2022-08-25T18:31:13.215Z,98285.34
2022-08-25T18:33:44.711Z,98287.56
2022-08-25T18:36:12.866Z,98297.22
2022-08-25T18:38:59.047Z,98292.53
2022-08-25T18:41:27.183Z,98298.41
2022-08-25T18:43:54.262Z,98297.13
2022-08-25T18:46:22.687Z,98298.50
2022-08-25T18:48:52.909Z,98299.34
2022-08-25T18:51:23.228Z,98297.69
2022-08-25T18:53:51.254Z,98297.72
2022-08-25T18:56:22.345Z,98306.47
2022-08-25T18:58:48.814Z,98315.25
2022-08-25T19:01:16.594Z,98310.63
2022-08-25T19:03:43.336Z,98313.13
2022-08-25T19:06:10.957Z,98319.72
2022-08-25T19:08:39.441Z,98314.78
2022-08-25T19:11:09.600Z,98318.06
2022-08-25T19:13:36.188Z,98319.72
2022-08-25T19:16:14.049Z,98322.47
2022-08-25T19:18:45.336Z,98323.81
2022-08-25T19:21:11.871Z,98328.50
2022-08-25T19:23:38.974Z,98319.69
2022-08-25T19:26:16.921Z,98320.78
2022-08-25T19:28:49.053Z,98327.91
2022-08-25T19:31:26.337Z,98324.88
2022-08-25T19:33:55.082Z,98328.41
2022-08-25T19:36:28.077Z,98333.34
2022-08-25T19:38:58.164Z,98327.31
2022-08-25T19:41:27.320Z,98332.22
2022-08-25T19:43:56.103Z,98331.41
2022-08-25T19:46:25.782Z,98331.09
2022-08-25T19:49:04.856Z,98333.56
2022-08-25T19:51:35.511Z,98329.44
2022-08-25T19:54:01.987Z,98332.63
2022-08-25T19:56:29.919Z,98328.22
2022-08-25T19:58:57.394Z,98335.31
2022-08-25T20:01:24.347Z,98330.66
2022-08-25T20:03:52.020Z,98331.41
2022-08-25T20:06:18.666Z,98334.16
2022-08-25T20:08:45.149Z,98340.16
2022-08-25T20:11:11.682Z,98339.59
2022-08-25T20:13:38.134Z,98339.03
2022-08-25T20:16:05.441Z,98330.28
2022-08-25T20:18:32.437Z,98343.88
2022-08-25T20:20:59.284Z,98348.19
2022-08-25T20:23:44.612Z,98353.13
2022-08-25T20:26:11.196Z,98350.91
2022-08-25T20:28:37.731Z,98346.47
2022-08-25T20:31:04.282Z,98349.19
2022-08-25T20:33:33.023Z,98344.53
2022-08-25T20:35:59.605Z,98349.09
2022-08-25T20:38:29.640Z,98347.41
2022-08-25T20:40:56.188Z,98347.63
2022-08-25T20:43:23.116Z,98347.09
2022-08-25T20:45:49.829Z,98341.03
2022-08-25T20:48:16.388Z,98360.38
2022-08-25T20:50:42.873Z,98349.41
2022-08-25T20:53:10.302Z,98348.63
2022-08-25T20:55:43.710Z,98356.81
2022-08-25T20:58:10.435Z,98362.69
2022-08-25T21:00:37.005Z,98363.94
2022-08-25T21:03:03.487Z,98360.53
2022-08-25T21:05:30.029Z,98364.53
2022-08-25T21:07:56.548Z,98363.16
2022-08-25T21:10:23.407Z,98358.50
2022-08-25T21:12:53.348Z,98356.34
2022-08-25T21:15:20.317Z,98366.41
2022-08-25T21:18:00.255Z,98361.78
2022-08-25T21:20:26.959Z,98367.72
2022-08-25T21:22:54.306Z,98369.31
2022-08-25T21:25:21.600Z,98366.53
2022-08-25T21:27:49.156Z,98365.13
2022-08-25T21:30:16.715Z,98363.50
2022-08-25T21:32:52.695Z,98368.81
2022-08-25T21:35:20.106Z,98364.88
2022-08-25T21:37:46.628Z,98370.34
2022-08-25T21:40:20.054Z,98368.75
2022-08-25T21:42:46.587Z,98363.28
2022-08-25T21:45:13.243Z,98357.53
2022-08-25T21:47:42.434Z,98365.41
2022-08-25T21:50:11.580Z,98362.06
2022-08-25T21:52:38.418Z,98353.56
2022-08-25T21:55:08.319Z,98363.69
2022-08-25T21:57:42.991Z,98365.41
2022-08-25T22:00:11.490Z,98366.03
2022-08-25T22:02:38.596Z,98359.63
2022-08-25T22:05:09.301Z,98367.56
2022-08-25T22:07:41.591Z,98370.81
2022-08-25T22:10:09.469Z,98368.19
2022-08-25T22:12:43.743Z,98373.66
2022-08-25T22:15:13.867Z,98368.53
2022-08-25T22:17:40.580Z,98369.91
2022-08-25T22:20:08.335Z,98362.75
2022-08-25T22:22:36.003Z,98357.75
2022-08-25T22:25:03.776Z,98359.56
2022-08-25T22:27:32.812Z,98355.97
2022-08-25T22:29:59.491Z,98355.28
2022-08-25T22:32:26.392Z,98365.59
2022-08-25T22:34:53.259Z,98362.34
2022-08-25T22:37:19.824Z,98363.00
2022-08-25T22:39:46.755Z,98357.63
2022-08-25T22:42:13.821Z,98359.31
2022-08-25T22:44:42.304Z,98359.31
2022-08-25T22:47:10.492Z,98361.47
2022-08-25T22:49:39.729Z,98357.56
2022-08-25T22:52:07.419Z,98351.06
2022-08-25T22:54:36.464Z,98353.75
2022-08-25T22:57:06.747Z,98358.38
2022-08-25T22:59:33.836Z,98348.41
2022-08-25T23:02:00.514Z,98341.50
2022-08-25T23:04:27.052Z,98343.66
2022-08-25T23:06:53.581Z,98343.09
2022-08-25T23:09:21.153Z,98343.84
2022-08-25T23:11:47.945Z,98347.06
2022-08-25T23:14:18.395Z,98341.88
2022-08-25T23:16:44.961Z,98344.47
2022-08-25T23:19:13.630Z,98344.09
2022-08-25T23:22:03.434Z,98339.66
2022-08-25T23:24:31.173Z,98335.94
2022-08-25T23:27:00.778Z,98345.00
2022-08-25T23:29:28.022Z,98334.03
2022-08-25T23:31:55.455Z,98331.31
2022-08-25T23:34:23.387Z,98333.19
2022-08-25T23:36:50.348Z,98329.97
2022-08-25T23:39:16.890Z,98325.28
2022-08-25T23:41:43.427Z,98323.97
2022-08-25T23:44:11.612Z,98319.34
2022-08-25T23:46:44.340Z,98327.25
2022-08-25T23:49:11.250Z,98327.16
2022-08-25T23:51:38.077Z,98320.97
2022-08-25T23:54:09.656Z,98317.19
2022-08-25T23:56:44.710Z,98316.63
2022-08-25T23:59:18.873Z,98320.59
